sensor_id;sensor_type;location;lat;lon;timestamp;temperature;humidity
22288;DHT22;11312;51.464;6.968;2023-04-24T00:02:03;11.40;99.90
22288;DHT22;11312;51.464;6.968;2023-04-24T00:04:29;11.40;99.90
22288;DHT22;11312;51.464;6.968;2023-04-24T00:06:55;11.50;1.00
22288;DHT22;11312;51.464;6.968;2023-04-24T00:09:22;11.50;1.00
22288;DHT22;11312;51.464;6.968;2023-04-24T00:11:48;11.50;1.00
22288;DHT22;11312;51.464;6.968;2023-04-24T00:14:14;11.50;99.90
22288;DHT22;11312;51.464;6.968;2023-04-24T00:16:39;11.50;38.40
22288;DHT22;11312;51.464;6.968;2023-04-24T00:19:05;11.50;99.90
22288;DHT22;11312;51.464;6.968;2023-04-24T00:21:32;11.50;22.00
22288;DHT22;11312;51.464;6.968;2023-04-24T00:23:58;11.40;1.00
22288;DHT22;11312;51.464;6.968;2023-04-24T00:26:23;11.40;74.80
22288;DHT22;11312;51.464;6.968;2023-04-24T00:28:49;11.40;1.00
22288;DHT22;11312;51.464;6.968;2023-04-24T00:31:15;11.40;99.90
22288;DHT22;11312;51.464;6.968;2023-04-24T00:33:40;11.40;1.00
22288;DHT22;11312;51.464;6.968;2023-04-24T00:36:06;11.30;99.90
22288;DHT22;11312;51.464;6.968;2023-04-24T00:38:32;11.30;96.70
22288;DHT22;11312;51.464;6.968;2023-04-24T00:40:58;11.20;1.00
22288;DHT22;11312;51.464;6.968;2023-04-24T00:43:24;11.20;99.90
22288;DHT22;11312;51.464;6.968;2023-04-24T00:45:50;11.20;1.00
22288;DHT22;11312;51.464;6.968;2023-04-24T00:48:16;11.10;1.00
22288;DHT22;11312;51.464;6.968;2023-04-24T00:50:42;10.90;99.90
22288;DHT22;11312;51.464;6.968;2023-04-24T00:53:07;10.90;1.00
22288;DHT22;11312;51.464;6.968;2023-04-24T00:55:33;10.80;1.00
22288;DHT22;11312;51.464;6.968;2023-04-24T00:57:59;10.80;1.00
22288;DHT22;11312;51.464;6.968;2023-04-24T01:00:25;10.70;1.00
22288;DHT22;11312;51.464;6.968;2023-04-24T01:02:52;10.50;99.90
22288;DHT22;11312;51.464;6.968;2023-04-24T01:05:18;10.50;1.00
22288;DHT22;11312;51.464;6.968;2023-04-24T01:07:45;10.60;1.00
22288;DHT22;11312;51.464;6.968;2023-04-24T01:10:14;10.60;32.00
22288;DHT22;11312;51.464;6.968;2023-04-24T01:12:40;10.60;72.60
22288;DHT22;11312;51.464;6.968;2023-04-24T01:15:06;10.50;1.00
22288;DHT22;11312;51.464;6.968;2023-04-24T01:17:32;10.50;1.00
22288;DHT22;11312;51.464;6.968;2023-04-24T01:20:01;10.40;1.00
22288;DHT22;11312;51.464;6.968;2023-04-24T01:22:31;10.30;1.00
22288;DHT22;11312;51.464;6.968;2023-04-24T01:24:56;10.30;1.00
22288;DHT22;11312;51.464;6.968;2023-04-24T01:27:22;10.30;99.90
22288;DHT22;11312;51.464;6.968;2023-04-24T01:29:48;10.20;99.90
22288;DHT22;11312;51.464;6.968;2023-04-24T01:32:15;10.20;99.90
22288;DHT22;11312;51.464;6.968;2023-04-24T01:34:41;10.10;99.90
22288;DHT22;11312;51.464;6.968;2023-04-24T01:37:07;10.10;1.00
22288;DHT22;11312;51.464;6.968;2023-04-24T01:39:33;10.10;99.90
22288;DHT22;11312;51.464;6.968;2023-04-24T01:41:59;10.10;1.00
22288;DHT22;11312;51.464;6.968;2023-04-24T01:44:26;10.10;1.00
22288;DHT22;11312;51.464;6.968;2023-04-24T01:46:52;10.10;1.00
22288;DHT22;11312;51.464;6.968;2023-04-24T01:49:19;10.00;1.00
22288;DHT22;11312;51.464;6.968;2023-04-24T01:51:45;9.90;1.00
22288;DHT22;11312;51.464;6.968;2023-04-24T01:54:10;9.90;1.00
22288;DHT22;11312;51.464;6.968;2023-04-24T01:56:40;9.90;1.00
22288;DHT22;11312;51.464;6.968;2023-04-24T01:59:06;9.80;1.00
22288;DHT22;11312;51.464;6.968;2023-04-24T02:01:36;9.80;1.00
22288;DHT22;11312;51.464;6.968;2023-04-24T02:04:03;9.80;1.00
22288;DHT22;11312;51.464;6.968;2023-04-24T02:06:29;9.90;1.00
22288;DHT22;11312;51.464;6.968;2023-04-24T02:08:59;9.90;1.00
22288;DHT22;11312;51.464;6.968;2023-04-24T02:11:25;9.80;1.00
22288;DHT22;11312;51.464;6.968;2023-04-24T02:13:52;9.80;99.90
22288;DHT22;11312;51.464;6.968;2023-04-24T02:16:18;9.80;99.90
22288;DHT22;11312;51.464;6.968;2023-04-24T02:18:43;9.40;1.00
22288;DHT22;11312;51.464;6.968;2023-04-24T02:21:10;9.80;1.00
22288;DHT22;11312;51.464;6.968;2023-04-24T02:23:35;9.70;1.00
22288;DHT22;11312;51.464;6.968;2023-04-24T02:26:01;9.60;1.00
22288;DHT22;11312;51.464;6.968;2023-04-24T02:28:27;9.60;1.00
22288;DHT22;11312;51.464;6.968;2023-04-24T02:30:52;9.70;1.00
22288;DHT22;11312;51.464;6.968;2023-04-24T02:33:18;9.70;99.90
22288;DHT22;11312;51.464;6.968;2023-04-24T02:35:43;9.70;99.90
22288;DHT22;11312;51.464;6.968;2023-04-24T02:38:09;9.60;99.90
22288;DHT22;11312;51.464;6.968;2023-04-24T02:40:35;9.70;1.00
22288;DHT22;11312;51.464;6.968;2023-04-24T02:43:00;9.80;1.00
22288;DHT22;11312;51.464;6.968;2023-04-24T02:45:26;9.80;1.00
22288;DHT22;11312;51.464;6.968;2023-04-24T02:47:51;9.70;1.00
22288;DHT22;11312;51.464;6.968;2023-04-24T02:50:17;9.60;1.00
22288;DHT22;11312;51.464;6.968;2023-04-24T02:52:43;9.60;1.00
22288;DHT22;11312;51.464;6.968;2023-04-24T02:55:08;9.60;1.00
22288;DHT22;11312;51.464;6.968;2023-04-24T02:57:34;9.80;1.00
22288;DHT22;11312;51.464;6.968;2023-04-24T03:00:00;9.70;1.00
22288;DHT22;11312;51.464;6.968;2023-04-24T03:02:25;9.80;1.00
22288;DHT22;11312;51.464;6.968;2023-04-24T03:04:51;9.60;1.00
22288;DHT22;11312;51.464;6.968;2023-04-24T03:07:16;9.70;1.00
22288;DHT22;11312;51.464;6.968;2023-04-24T03:09:42;9.70;1.00
22288;DHT22;11312;51.464;6.968;2023-04-24T03:12:08;9.70;1.00
22288;DHT22;11312;51.464;6.968;2023-04-24T03:14:34;9.60;1.00
22288;DHT22;11312;51.464;6.968;2023-04-24T03:17:00;9.70;1.00
22288;DHT22;11312;51.464;6.968;2023-04-24T03:19:25;9.70;1.00
22288;DHT22;11312;51.464;6.968;2023-04-24T03:21:51;9.70;1.00
22288;DHT22;11312;51.464;6.968;2023-04-24T03:24:16;9.70;1.00
22288;DHT22;11312;51.464;6.968;2023-04-24T03:26:42;9.70;1.00
22288;DHT22;11312;51.464;6.968;2023-04-24T03:29:08;9.70;1.00
22288;DHT22;11312;51.464;6.968;2023-04-24T03:31:33;9.80;1.00
22288;DHT22;11312;51.464;6.968;2023-04-24T03:33:59;9.80;1.00
22288;DHT22;11312;51.464;6.968;2023-04-24T03:36:24;9.70;1.00
22288;DHT22;11312;51.464;6.968;2023-04-24T03:38:51;9.80;1.00
22288;DHT22;11312;51.464;6.968;2023-04-24T03:41:17;9.70;1.00
22288;DHT22;11312;51.464;6.968;2023-04-24T03:43:42;9.70;1.00
22288;DHT22;11312;51.464;6.968;2023-04-24T03:46:08;9.70;1.00
22288;DHT22;11312;51.464;6.968;2023-04-24T03:48:34;9.70;1.00
22288;DHT22;11312;51.464;6.968;2023-04-24T03:51:00;9.70;1.00
22288;DHT22;11312;51.464;6.968;2023-04-24T03:53:26;9.90;1.00
22288;DHT22;11312;51.464;6.968;2023-04-24T03:55:52;9.80;1.00
22288;DHT22;11312;51.464;6.968;2023-04-24T03:58:18;9.80;1.00
22288;DHT22;11312;51.464;6.968;2023-04-24T04:00:44;9.70;1.00
22288;DHT22;11312;51.464;6.968;2023-04-24T04:03:10;9.80;1.00
22288;DHT22;11312;51.464;6.968;2023-04-24T04:05:35;9.80;1.00
22288;DHT22;11312;51.464;6.968;2023-04-24T04:08:01;9.80;99.90
22288;DHT22;11312;51.464;6.968;2023-04-24T04:10:27;9.80;99.90
22288;DHT22;11312;51.464;6.968;2023-04-24T04:12:53;9.80;99.90
22288;DHT22;11312;51.464;6.968;2023-04-24T04:15:18;9.70;99.90
22288;DHT22;11312;51.464;6.968;2023-04-24T04:17:44;9.90;1.00
22288;DHT22;11312;51.464;6.968;2023-04-24T04:20:11;9.80;99.90
22288;DHT22;11312;51.464;6.968;2023-04-24T04:22:37;9.80;1.00
22288;DHT22;11312;51.464;6.968;2023-04-24T04:25:03;9.90;1.00
22288;DHT22;11312;51.464;6.968;2023-04-24T04:27:29;9.80;99.90
22288;DHT22;11312;51.464;6.968;2023-04-24T04:29:58;9.80;99.90
22288;DHT22;11312;51.464;6.968;2023-04-24T04:32:24;9.80;1.00
22288;DHT22;11312;51.464;6.968;2023-04-24T04:34:51;9.80;99.90
22288;DHT22;11312;51.464;6.968;2023-04-24T04:37:18;9.80;99.90
22288;DHT22;11312;51.464;6.968;2023-04-24T04:39:44;9.80;99.90
22288;DHT22;11312;51.464;6.968;2023-04-24T04:42:10;9.80;99.90
22288;DHT22;11312;51.464;6.968;2023-04-24T04:44:35;9.80;99.90
22288;DHT22;11312;51.464;6.968;2023-04-24T04:47:02;9.70;99.90
22288;DHT22;11312;51.464;6.968;2023-04-24T04:49:32;9.80;99.90
22288;DHT22;11312;51.464;6.968;2023-04-24T04:51:57;9.80;99.90
22288;DHT22;11312;51.464;6.968;2023-04-24T04:54:23;9.80;99.90
22288;DHT22;11312;51.464;6.968;2023-04-24T04:56:51;9.80;99.90
22288;DHT22;11312;51.464;6.968;2023-04-24T04:59:17;9.80;93.00
22288;DHT22;11312;51.464;6.968;2023-04-24T05:01:42;9.80;99.90
22288;DHT22;11312;51.464;6.968;2023-04-24T05:04:08;9.70;99.90
22288;DHT22;11312;51.464;6.968;2023-04-24T05:06:34;9.70;76.50
22288;DHT22;11312;51.464;6.968;2023-04-24T05:08:59;9.80;99.90
22288;DHT22;11312;51.464;6.968;2023-04-24T05:11:25;9.70;1.00
22288;DHT22;11312;51.464;6.968;2023-04-24T05:13:50;9.80;99.90
22288;DHT22;11312;51.464;6.968;2023-04-24T05:16:16;9.70;1.00
22288;DHT22;11312;51.464;6.968;2023-04-24T05:18:42;9.70;1.00
22288;DHT22;11312;51.464;6.968;2023-04-24T05:21:07;9.70;99.90
22288;DHT22;11312;51.464;6.968;2023-04-24T05:23:33;9.60;99.90
22288;DHT22;11312;51.464;6.968;2023-04-24T05:25:58;9.50;99.90
22288;DHT22;11312;51.464;6.968;2023-04-24T05:28:24;9.50;99.90
22288;DHT22;11312;51.464;6.968;2023-04-24T05:30:54;9.30;1.00
22288;DHT22;11312;51.464;6.968;2023-04-24T05:33:20;9.30;99.90
22288;DHT22;11312;51.464;6.968;2023-04-24T05:35:46;9.10;99.90
22288;DHT22;11312;51.464;6.968;2023-04-24T05:38:12;9.00;99.90
22288;DHT22;11312;51.464;6.968;2023-04-24T05:40:39;9.10;99.90
22288;DHT22;11312;51.464;6.968;2023-04-24T05:43:04;9.00;99.90
22288;DHT22;11312;51.464;6.968;2023-04-24T05:45:30;8.80;99.90
22288;DHT22;11312;51.464;6.968;2023-04-24T05:47:57;8.80;99.90
22288;DHT22;11312;51.464;6.968;2023-04-24T05:50:22;8.90;99.90
22288;DHT22;11312;51.464;6.968;2023-04-24T05:52:48;8.80;99.90
22288;DHT22;11312;51.464;6.968;2023-04-24T05:55:14;8.70;99.90
22288;DHT22;11312;51.464;6.968;2023-04-24T05:57:39;8.80;99.90
22288;DHT22;11312;51.464;6.968;2023-04-24T06:00:05;8.80;99.90
22288;DHT22;11312;51.464;6.968;2023-04-24T06:02:31;8.90;99.90
22288;DHT22;11312;51.464;6.968;2023-04-24T06:04:58;8.90;99.90
22288;DHT22;11312;51.464;6.968;2023-04-24T06:07:25;8.90;99.90
22288;DHT22;11312;51.464;6.968;2023-04-24T06:09:51;9.00;99.90
22288;DHT22;11312;51.464;6.968;2023-04-24T06:12:17;9.20;99.90
22288;DHT22;11312;51.464;6.968;2023-04-24T06:14:43;9.10;99.90
22288;DHT22;11312;51.464;6.968;2023-04-24T06:17:09;9.10;99.90
22288;DHT22;11312;51.464;6.968;2023-04-24T06:19:34;9.20;99.90
22288;DHT22;11312;51.464;6.968;2023-04-24T06:22:00;9.10;99.90
22288;DHT22;11312;51.464;6.968;2023-04-24T06:24:29;8.90;99.90
22288;DHT22;11312;51.464;6.968;2023-04-24T06:26:54;9.10;99.90
22288;DHT22;11312;51.464;6.968;2023-04-24T06:29:20;9.10;99.90
22288;DHT22;11312;51.464;6.968;2023-04-24T06:31:45;8.80;99.90
22288;DHT22;11312;51.464;6.968;2023-04-24T06:34:11;8.90;99.90
22288;DHT22;11312;51.464;6.968;2023-04-24T06:36:37;8.90;99.90
22288;DHT22;11312;51.464;6.968;2023-04-24T06:39:03;9.00;99.90
22288;DHT22;11312;51.464;6.968;2023-04-24T06:41:29;8.90;99.90
22288;DHT22;11312;51.464;6.968;2023-04-24T06:43:55;9.00;99.90
22288;DHT22;11312;51.464;6.968;2023-04-24T06:46:21;9.00;99.90
22288;DHT22;11312;51.464;6.968;2023-04-24T06:48:52;9.10;99.90
22288;DHT22;11312;51.464;6.968;2023-04-24T06:51:24;8.90;99.90
22288;DHT22;11312;51.464;6.968;2023-04-24T06:53:53;9.00;99.90
22288;DHT22;11312;51.464;6.968;2023-04-24T06:56:19;9.20;99.90
22288;DHT22;11312;51.464;6.968;2023-04-24T06:58:46;9.40;99.90
22288;DHT22;11312;51.464;6.968;2023-04-24T07:01:12;9.20;99.90
22288;DHT22;11312;51.464;6.968;2023-04-24T07:03:37;9.20;99.90
22288;DHT22;11312;51.464;6.968;2023-04-24T07:06:04;9.20;99.90
22288;DHT22;11312;51.464;6.968;2023-04-24T07:08:30;9.20;99.90
22288;DHT22;11312;51.464;6.968;2023-04-24T07:10:57;9.10;99.90
22288;DHT22;11312;51.464;6.968;2023-04-24T07:13:23;9.00;99.90
22288;DHT22;11312;51.464;6.968;2023-04-24T07:15:49;9.00;99.90
22288;DHT22;11312;51.464;6.968;2023-04-24T07:18:16;8.90;99.90
22288;DHT22;11312;51.464;6.968;2023-04-24T07:20:42;9.10;99.90
22288;DHT22;11312;51.464;6.968;2023-04-24T07:23:07;9.10;99.90
22288;DHT22;11312;51.464;6.968;2023-04-24T07:25:33;9.00;99.90
22288;DHT22;11312;51.464;6.968;2023-04-24T07:27:59;8.90;99.90
22288;DHT22;11312;51.464;6.968;2023-04-24T07:30:25;9.00;99.90
22288;DHT22;11312;51.464;6.968;2023-04-24T07:32:51;8.90;99.90
22288;DHT22;11312;51.464;6.968;2023-04-24T07:35:16;8.90;99.90
22288;DHT22;11312;51.464;6.968;2023-04-24T07:37:42;8.70;99.90
22288;DHT22;11312;51.464;6.968;2023-04-24T07:40:14;8.70;99.90
22288;DHT22;11312;51.464;6.968;2023-04-24T07:42:40;8.60;99.90
22288;DHT22;11312;51.464;6.968;2023-04-24T07:45:07;8.90;99.90
22288;DHT22;11312;51.464;6.968;2023-04-24T07:47:32;9.00;99.90
22288;DHT22;11312;51.464;6.968;2023-04-24T07:49:59;9.10;99.90
22288;DHT22;11312;51.464;6.968;2023-04-24T07:52:24;9.20;99.90
22288;DHT22;11312;51.464;6.968;2023-04-24T07:54:50;9.40;99.90
22288;DHT22;11312;51.464;6.968;2023-04-24T07:57:17;8.90;99.90
22288;DHT22;11312;51.464;6.968;2023-04-24T07:59:43;8.90;99.90
22288;DHT22;11312;51.464;6.968;2023-04-24T08:02:09;8.80;99.90
22288;DHT22;11312;51.464;6.968;2023-04-24T08:04:35;8.90;99.90
22288;DHT22;11312;51.464;6.968;2023-04-24T08:07:00;8.80;99.90
22288;DHT22;11312;51.464;6.968;2023-04-24T08:09:26;8.70;99.90
22288;DHT22;11312;51.464;6.968;2023-04-24T08:11:52;8.60;99.90
22288;DHT22;11312;51.464;6.968;2023-04-24T08:14:18;8.40;99.90
22288;DHT22;11312;51.464;6.968;2023-04-24T08:16:44;8.30;99.90
22288;DHT22;11312;51.464;6.968;2023-04-24T08:19:10;8.30;99.90
22288;DHT22;11312;51.464;6.968;2023-04-24T08:21:35;8.20;99.90
22288;DHT22;11312;51.464;6.968;2023-04-24T08:24:01;8.20;99.90
22288;DHT22;11312;51.464;6.968;2023-04-24T08:26:30;8.20;99.90
22288;DHT22;11312;51.464;6.968;2023-04-24T08:28:56;8.10;99.90
22288;DHT22;11312;51.464;6.968;2023-04-24T08:31:22;8.00;99.90
22288;DHT22;11312;51.464;6.968;2023-04-24T08:33:48;8.00;99.90
22288;DHT22;11312;51.464;6.968;2023-04-24T08:36:13;8.00;99.90
22288;DHT22;11312;51.464;6.968;2023-04-24T08:38:39;7.90;99.90
22288;DHT22;11312;51.464;6.968;2023-04-24T08:41:05;8.20;99.90
22288;DHT22;11312;51.464;6.968;2023-04-24T08:43:33;8.10;99.90
22288;DHT22;11312;51.464;6.968;2023-04-24T08:45:59;8.10;99.90
22288;DHT22;11312;51.464;6.968;2023-04-24T08:48:26;8.10;99.90
22288;DHT22;11312;51.464;6.968;2023-04-24T08:50:52;8.90;99.90
22288;DHT22;11312;51.464;6.968;2023-04-24T08:53:18;8.50;99.90
22288;DHT22;11312;51.464;6.968;2023-04-24T08:55:47;8.50;99.90
22288;DHT22;11312;51.464;6.968;2023-04-24T08:58:15;8.80;99.90
22288;DHT22;11312;51.464;6.968;2023-04-24T09:00:41;9.00;99.90
22288;DHT22;11312;51.464;6.968;2023-04-24T09:03:16;9.10;99.90
22288;DHT22;11312;51.464;6.968;2023-04-24T09:05:47;9.30;99.90
22288;DHT22;11312;51.464;6.968;2023-04-24T09:08:16;9.50;99.90
22288;DHT22;11312;51.464;6.968;2023-04-24T09:10:43;9.60;99.90
22288;DHT22;11312;51.464;6.968;2023-04-24T09:13:09;9.40;99.90
22288;DHT22;11312;51.464;6.968;2023-04-24T09:15:36;9.30;99.90
22288;DHT22;11312;51.464;6.968;2023-04-24T09:18:01;9.20;99.90
22288;DHT22;11312;51.464;6.968;2023-04-24T09:20:28;9.30;99.90
22288;DHT22;11312;51.464;6.968;2023-04-24T09:22:54;9.40;99.90
22288;DHT22;11312;51.464;6.968;2023-04-24T09:25:21;9.10;99.90
22288;DHT22;11312;51.464;6.968;2023-04-24T09:27:47;8.90;99.90
22288;DHT22;11312;51.464;6.968;2023-04-24T09:30:13;9.00;99.90
22288;DHT22;11312;51.464;6.968;2023-04-24T09:32:39;9.20;99.90
22288;DHT22;11312;51.464;6.968;2023-04-24T09:37:36;9.30;99.90
22288;DHT22;11312;51.464;6.968;2023-04-24T09:40:19;9.50;99.90
22288;DHT22;11312;51.464;6.968;2023-04-24T09:42:53;9.50;99.90
22288;DHT22;11312;51.464;6.968;2023-04-24T09:45:20;9.50;99.90
22288;DHT22;11312;51.464;6.968;2023-04-24T09:47:46;9.30;99.90
22288;DHT22;11312;51.464;6.968;2023-04-24T09:50:16;9.30;99.90
22288;DHT22;11312;51.464;6.968;2023-04-24T09:52:43;9.20;99.90
22288;DHT22;11312;51.464;6.968;2023-04-24T09:55:20;9.20;99.90
22288;DHT22;11312;51.464;6.968;2023-04-24T09:57:49;9.20;99.90
22288;DHT22;11312;51.464;6.968;2023-04-24T10:00:26;9.30;99.90
22288;DHT22;11312;51.464;6.968;2023-04-24T10:03:03;9.20;99.90
22288;DHT22;11312;51.464;6.968;2023-04-24T10:05:31;9.00;99.90
22288;DHT22;11312;51.464;6.968;2023-04-24T10:07:59;9.20;99.90
22288;DHT22;11312;51.464;6.968;2023-04-24T10:10:25;9.00;99.90
22288;DHT22;11312;51.464;6.968;2023-04-24T10:12:51;9.00;99.90
22288;DHT22;11312;51.464;6.968;2023-04-24T10:15:18;9.10;99.90
22288;DHT22;11312;51.464;6.968;2023-04-24T10:17:50;9.20;99.90
22288;DHT22;11312;51.464;6.968;2023-04-24T10:20:23;9.30;99.90
22288;DHT22;11312;51.464;6.968;2023-04-24T10:22:53;9.10;99.90
22288;DHT22;11312;51.464;6.968;2023-04-24T10:25:20;9.20;99.90
22288;DHT22;11312;51.464;6.968;2023-04-24T10:27:46;9.30;99.90
22288;DHT22;11312;51.464;6.968;2023-04-24T10:30:12;9.40;99.90
22288;DHT22;11312;51.464;6.968;2023-04-24T10:32:38;9.10;99.90
22288;DHT22;11312;51.464;6.968;2023-04-24T10:35:05;9.30;99.90
22288;DHT22;11312;51.464;6.968;2023-04-24T10:37:37;9.20;99.90
22288;DHT22;11312;51.464;6.968;2023-04-24T10:40:04;9.20;99.90
22288;DHT22;11312;51.464;6.968;2023-04-24T10:42:31;9.50;99.90
22288;DHT22;11312;51.464;6.968;2023-04-24T10:44:56;9.50;99.90
22288;DHT22;11312;51.464;6.968;2023-04-24T10:47:23;9.40;99.90
22288;DHT22;11312;51.464;6.968;2023-04-24T10:49:51;9.30;99.90
22288;DHT22;11312;51.464;6.968;2023-04-24T10:52:17;9.40;99.90
22288;DHT22;11312;51.464;6.968;2023-04-24T10:54:47;9.40;99.90
22288;DHT22;11312;51.464;6.968;2023-04-24T10:57:33;9.50;99.90
22288;DHT22;11312;51.464;6.968;2023-04-24T11:00:20;9.80;99.90
22288;DHT22;11312;51.464;6.968;2023-04-24T11:02:47;9.60;99.90
22288;DHT22;11312;51.464;6.968;2023-04-24T11:05:19;9.90;99.90
22288;DHT22;11312;51.464;6.968;2023-04-24T11:10:39;9.80;99.90
22288;DHT22;11312;51.464;6.968;2023-04-24T11:13:05;10.30;99.90
22288;DHT22;11312;51.464;6.968;2023-04-24T11:15:31;10.20;99.90
22288;DHT22;11312;51.464;6.968;2023-04-24T11:17:56;10.40;99.90
22288;DHT22;11312;51.464;6.968;2023-04-24T11:20:23;11.10;99.90
22288;DHT22;11312;51.464;6.968;2023-04-24T11:22:53;11.30;99.90
22288;DHT22;11312;51.464;6.968;2023-04-24T11:25:21;11.50;99.90
22288;DHT22;11312;51.464;6.968;2023-04-24T11:27:48;11.10;99.90
22288;DHT22;11312;51.464;6.968;2023-04-24T11:30:19;10.80;99.90
22288;DHT22;11312;51.464;6.968;2023-04-24T11:32:50;10.30;99.90
22288;DHT22;11312;51.464;6.968;2023-04-24T11:35:21;10.20;99.90
22288;DHT22;11312;51.464;6.968;2023-04-24T11:37:54;9.90;99.90
22288;DHT22;11312;51.464;6.968;2023-04-24T11:40:21;9.60;99.90
22288;DHT22;11312;51.464;6.968;2023-04-24T11:42:52;9.60;99.90
22288;DHT22;11312;51.464;6.968;2023-04-24T11:45:25;9.60;99.90
22288;DHT22;11312;51.464;6.968;2023-04-24T11:47:51;9.50;99.90
22288;DHT22;11312;51.464;6.968;2023-04-24T11:50:18;9.50;99.90
22288;DHT22;11312;51.464;6.968;2023-04-24T11:52:46;9.50;99.90
22288;DHT22;11312;51.464;6.968;2023-04-24T11:57:46;9.80;99.90
22288;DHT22;11312;51.464;6.968;2023-04-24T12:00:23;10.20;99.90
22288;DHT22;11312;51.464;6.968;2023-04-24T12:02:50;10.90;99.90
22288;DHT22;11312;51.464;6.968;2023-04-24T12:05:20;11.10;99.90
22288;DHT22;11312;51.464;6.968;2023-04-24T12:07:46;11.30;99.90
22288;DHT22;11312;51.464;6.968;2023-04-24T12:10:12;11.00;99.90
22288;DHT22;11312;51.464;6.968;2023-04-24T12:12:37;10.80;99.90
22288;DHT22;11312;51.464;6.968;2023-04-24T12:15:07;10.70;99.90
22288;DHT22;11312;51.464;6.968;2023-04-24T12:17:35;10.90;99.90
22288;DHT22;11312;51.464;6.968;2023-04-24T12:20:06;10.90;99.90
22288;DHT22;11312;51.464;6.968;2023-04-24T12:22:53;11.00;99.90
22288;DHT22;11312;51.464;6.968;2023-04-24T12:25:21;10.70;99.90
22288;DHT22;11312;51.464;6.968;2023-04-24T12:27:53;10.50;99.90
22288;DHT22;11312;51.464;6.968;2023-04-24T12:30:19;10.30;99.90
22288;DHT22;11312;51.464;6.968;2023-04-24T12:32:49;10.40;99.90
22288;DHT22;11312;51.464;6.968;2023-04-24T12:35:22;10.10;99.90
22288;DHT22;11312;51.464;6.968;2023-04-24T12:37:49;10.10;99.90
22288;DHT22;11312;51.464;6.968;2023-04-24T12:40:16;10.10;99.90
22288;DHT22;11312;51.464;6.968;2023-04-24T12:42:46;10.10;99.90
22288;DHT22;11312;51.464;6.968;2023-04-24T12:45:13;10.30;99.90
22288;DHT22;11312;51.464;6.968;2023-04-24T12:47:40;10.50;99.90
22288;DHT22;11312;51.464;6.968;2023-04-24T12:50:08;10.60;99.90
22288;DHT22;11312;51.464;6.968;2023-04-24T12:52:35;10.60;99.90
22288;DHT22;11312;51.464;6.968;2023-04-24T12:55:01;10.30;99.90
22288;DHT22;11312;51.464;6.968;2023-04-24T12:57:28;10.30;99.90
22288;DHT22;11312;51.464;6.968;2023-04-24T12:59:55;10.30;99.90
22288;DHT22;11312;51.464;6.968;2023-04-24T13:02:22;10.60;99.90
22288;DHT22;11312;51.464;6.968;2023-04-24T13:04:48;11.00;99.90
22288;DHT22;11312;51.464;6.968;2023-04-24T13:07:14;11.00;99.90
22288;DHT22;11312;51.464;6.968;2023-04-24T13:09:41;11.00;99.90
22288;DHT22;11312;51.464;6.968;2023-04-24T13:12:07;10.90;99.90
22288;DHT22;11312;51.464;6.968;2023-04-24T13:14:33;10.80;99.90
22288;DHT22;11312;51.464;6.968;2023-04-24T13:16:59;10.60;99.90
22288;DHT22;11312;51.464;6.968;2023-04-24T13:19:25;10.60;99.90
22288;DHT22;11312;51.464;6.968;2023-04-24T13:21:52;10.60;99.90
22288;DHT22;11312;51.464;6.968;2023-04-24T13:24:18;10.60;99.90
22288;DHT22;11312;51.464;6.968;2023-04-24T13:26:43;10.50;99.90
22288;DHT22;11312;51.464;6.968;2023-04-24T13:29:09;11.40;99.90
22288;DHT22;11312;51.464;6.968;2023-04-24T13:31:35;11.40;99.90
22288;DHT22;11312;51.464;6.968;2023-04-24T13:34:02;11.10;99.90
22288;DHT22;11312;51.464;6.968;2023-04-24T13:36:28;10.80;99.90
22288;DHT22;11312;51.464;6.968;2023-04-24T13:38:54;11.00;99.90
22288;DHT22;11312;51.464;6.968;2023-04-24T13:41:19;10.90;99.90
22288;DHT22;11312;51.464;6.968;2023-04-24T13:43:45;10.70;99.90
22288;DHT22;11312;51.464;6.968;2023-04-24T13:46:10;10.70;99.90
22288;DHT22;11312;51.464;6.968;2023-04-24T13:48:36;10.70;99.90
22288;DHT22;11312;51.464;6.968;2023-04-24T13:51:02;10.70;99.90
22288;DHT22;11312;51.464;6.968;2023-04-24T13:53:27;10.70;99.90
22288;DHT22;11312;51.464;6.968;2023-04-24T13:55:53;10.70;99.90
22288;DHT22;11312;51.464;6.968;2023-04-24T13:58:19;10.70;99.90
22288;DHT22;11312;51.464;6.968;2023-04-24T14:00:44;10.90;99.90
22288;DHT22;11312;51.464;6.968;2023-04-24T14:03:10;11.10;99.90
22288;DHT22;11312;51.464;6.968;2023-04-24T14:05:36;11.60;99.90
22288;DHT22;11312;51.464;6.968;2023-04-24T14:08:02;12.00;99.90
22288;DHT22;11312;51.464;6.968;2023-04-24T14:10:27;12.50;99.90
22288;DHT22;11312;51.464;6.968;2023-04-24T14:12:53;12.20;99.90
22288;DHT22;11312;51.464;6.968;2023-04-24T14:15:19;12.00;99.90
22288;DHT22;11312;51.464;6.968;2023-04-24T14:17:45;11.60;99.90
22288;DHT22;11312;51.464;6.968;2023-04-24T14:20:12;11.50;99.90
22288;DHT22;11312;51.464;6.968;2023-04-24T14:22:37;11.40;99.90
22288;DHT22;11312;51.464;6.968;2023-04-24T14:25:04;11.40;99.90
22288;DHT22;11312;51.464;6.968;2023-04-24T14:27:31;11.50;99.90
22288;DHT22;11312;51.464;6.968;2023-04-24T14:29:57;11.30;99.90
22288;DHT22;11312;51.464;6.968;2023-04-24T14:32:23;11.40;99.90
22288;DHT22;11312;51.464;6.968;2023-04-24T14:34:48;11.20;99.90
22288;DHT22;11312;51.464;6.968;2023-04-24T14:37:14;11.00;99.90
22288;DHT22;11312;51.464;6.968;2023-04-24T14:39:40;11.00;99.90
22288;DHT22;11312;51.464;6.968;2023-04-24T14:42:06;10.80;99.90
22288;DHT22;11312;51.464;6.968;2023-04-24T14:44:31;10.60;99.90
22288;DHT22;11312;51.464;6.968;2023-04-24T14:46:58;10.50;99.90
22288;DHT22;11312;51.464;6.968;2023-04-24T14:49:24;10.50;99.90
22288;DHT22;11312;51.464;6.968;2023-04-24T14:51:49;10.40;99.90
22288;DHT22;11312;51.464;6.968;2023-04-24T14:54:15;10.10;99.90
22288;DHT22;11312;51.464;6.968;2023-04-24T14:56:41;10.00;99.90
22288;DHT22;11312;51.464;6.968;2023-04-24T14:59:08;10.00;99.90
22288;DHT22;11312;51.464;6.968;2023-04-24T15:01:33;9.90;99.90
22288;DHT22;11312;51.464;6.968;2023-04-24T15:03:59;9.90;99.90
22288;DHT22;11312;51.464;6.968;2023-04-24T15:06:25;10.10;99.90
22288;DHT22;11312;51.464;6.968;2023-04-24T15:08:50;10.20;99.90
22288;DHT22;11312;51.464;6.968;2023-04-24T15:11:16;10.20;99.90
22288;DHT22;11312;51.464;6.968;2023-04-24T15:13:42;10.50;99.90
22288;DHT22;11312;51.464;6.968;2023-04-24T15:16:08;10.70;99.90
22288;DHT22;11312;51.464;6.968;2023-04-24T15:18:34;10.70;99.90
22288;DHT22;11312;51.464;6.968;2023-04-24T15:21:00;10.90;99.90
22288;DHT22;11312;51.464;6.968;2023-04-24T15:23:25;11.30;99.90
22288;DHT22;11312;51.464;6.968;2023-04-24T15:25:51;11.30;99.90
22288;DHT22;11312;51.464;6.968;2023-04-24T15:28:17;11.60;99.90
22288;DHT22;11312;51.464;6.968;2023-04-24T15:30:43;11.40;99.90
22288;DHT22;11312;51.464;6.968;2023-04-24T15:33:09;11.60;99.90
22288;DHT22;11312;51.464;6.968;2023-04-24T15:35:34;11.50;99.90
22288;DHT22;11312;51.464;6.968;2023-04-24T15:38:01;11.30;99.90
22288;DHT22;11312;51.464;6.968;2023-04-24T15:40:27;11.20;99.90
22288;DHT22;11312;51.464;6.968;2023-04-24T15:42:53;11.40;99.90
22288;DHT22;11312;51.464;6.968;2023-04-24T15:45:19;11.50;99.90
22288;DHT22;11312;51.464;6.968;2023-04-24T15:47:45;11.60;99.90